createdAt,value
2019-03-16T00:00:09.733Z,9.90
2019-03-16T00:02:38.253Z,9.90
2019-03-16T00:05:07.333Z,9.90
2019-03-16T00:07:35.857Z,9.90
2019-03-16T00:10:06.042Z,9.90
2019-03-16T00:12:34.563Z,9.90
2019-03-16T00:15:03.102Z,9.90
2019-03-16T00:17:31.687Z,9.90
2019-03-16T00:20:00.408Z,9.90
2019-03-16T00:22:28.914Z,9.90
2019-03-16T00:24:57.380Z,9.90
2019-03-16T00:27:25.902Z,9.90
2019-03-16T00:29:54.442Z,9.90
2019-03-16T00:32:23.027Z,9.90
2019-03-16T00:34:51.495Z,9.90
2019-03-16T00:37:20.040Z,9.90
2019-03-16T00:39:48.494Z,9.90
2019-03-16T00:42:16.950Z,9.90
2019-03-16T00:44:45.471Z,9.90
2019-03-16T00:47:14.008Z,9.90
2019-03-16T00:49:42.549Z,9.90
2019-03-16T00:52:11.083Z,9.80
2019-03-16T00:54:39.602Z,9.80
2019-03-16T00:57:08.074Z,9.80
2019-03-16T00:59:36.526Z,9.90
2019-03-16T01:02:05.058Z,9.80
2019-03-16T01:04:33.593Z,9.80
2019-03-16T01:07:02.202Z,9.80
2019-03-16T01:09:30.664Z,9.80
2019-03-16T01:11:59.179Z,9.80
2019-03-16T01:14:27.722Z,9.70
2019-03-16T01:16:56.545Z,9.80
2019-03-16T01:19:25.082Z,9.70
2019-03-16T01:21:53.538Z,9.70
2019-03-16T01:24:22.087Z,9.80
2019-03-16T01:26:50.607Z,9.80
2019-03-16T01:29:19.150Z,9.80
2019-03-16T01:31:47.603Z,9.80
2019-03-16T01:34:16.134Z,9.80
2019-03-16T01:36:44.666Z,9.80
2019-03-16T01:39:13.198Z,9.70
2019-03-16T01:41:41.647Z,9.70
2019-03-16T01:44:10.188Z,9.70
2019-03-16T01:46:38.711Z,9.70
2019-03-16T01:49:07.166Z,9.70
2019-03-16T01:51:35.722Z,9.70
2019-03-16T01:54:04.315Z,9.70
2019-03-16T01:56:32.855Z,9.80
2019-03-16T01:59:01.445Z,9.80
2019-03-16T02:01:30.054Z,9.90
2019-03-16T02:03:58.511Z,9.90
2019-03-16T02:06:27.054Z,9.90
2019-03-16T02:08:55.575Z,9.90
2019-03-16T02:11:24.121Z,9.90
2019-03-16T02:13:52.727Z,9.80
2019-03-16T02:16:21.343Z,9.80
2019-03-16T02:18:49.866Z,9.80
2019-03-16T02:21:18.402Z,9.80
2019-03-16T02:23:46.859Z,9.80
2019-03-16T02:26:15.399Z,9.80
2019-03-16T02:28:43.928Z,9.80
2019-03-16T02:31:12.544Z,9.80
2019-03-16T02:33:41.139Z,9.80
2019-03-16T02:36:09.684Z,9.70
2019-03-16T02:38:38.220Z,9.70
2019-03-16T02:41:06.820Z,9.70
2019-03-16T02:43:35.354Z,9.70
2019-03-16T02:46:03.888Z,9.70
2019-03-16T02:48:32.408Z,9.70
2019-03-16T02:51:00.947Z,9.70
2019-03-16T02:53:29.475Z,9.70
2019-03-16T02:55:58.019Z,9.70
2019-03-16T02:58:26.469Z,9.70
2019-03-16T03:00:55.067Z,9.70
2019-03-16T03:03:29.744Z,9.70
2019-03-16T03:05:53.788Z,9.70
2019-03-16T03:08:22.329Z,9.70
2019-03-16T03:10:50.847Z,9.70
2019-03-16T03:13:19.311Z,9.70
2019-03-16T03:15:47.839Z,9.80
2019-03-16T03:18:16.378Z,9.80
2019-03-16T03:20:44.956Z,9.80
2019-03-16T03:23:13.468Z,9.80
2019-03-16T03:25:41.995Z,9.80
2019-03-16T03:28:10.467Z,9.90
2019-03-16T03:30:39.064Z,9.90
2019-03-16T03:33:07.706Z,9.90
2019-03-16T03:35:36.222Z,9.90
2019-03-16T03:38:04.821Z,9.90
2019-03-16T03:40:33.803Z,9.90
2019-03-16T03:43:02.326Z,9.80
2019-03-16T03:45:30.871Z,9.90
2019-03-16T03:47:59.467Z,9.90
2019-03-16T03:50:27.991Z,9.90
2019-03-16T03:52:56.604Z,9.90
2019-03-16T03:55:25.492Z,9.90
2019-03-16T03:57:54.284Z,9.90
2019-03-16T04:00:22.799Z,9.90
2019-03-16T04:02:51.407Z,9.90
2019-03-16T04:05:19.994Z,9.90
2019-03-16T04:07:48.684Z,9.80
2019-03-16T04:10:17.362Z,9.80
2019-03-16T04:12:45.967Z,9.80
2019-03-16T04:15:14.551Z,9.80
2019-03-16T04:17:43.228Z,9.80
2019-03-16T04:20:15.268Z,9.90
2019-03-16T04:22:43.855Z,9.90
2019-03-16T04:25:12.644Z,9.90
2019-03-16T04:27:41.164Z,9.80
2019-03-16T04:30:11.475Z,9.80
2019-03-16T04:32:39.999Z,9.90
2019-03-16T04:35:08.684Z,9.90
2019-03-16T04:37:37.359Z,9.90
2019-03-16T04:40:08.198Z,9.80
2019-03-16T04:42:36.673Z,9.90
2019-03-16T04:45:07.843Z,9.90
2019-03-16T04:47:36.363Z,9.90
2019-03-16T04:50:07.614Z,9.90
2019-03-16T04:52:36.150Z,9.90
2019-03-16T04:55:05.444Z,9.90
2019-03-16T04:57:33.969Z,9.90
2019-03-16T05:00:02.506Z,9.90
2019-03-16T05:02:31.039Z,9.90
2019-03-16T05:04:59.582Z,9.90
2019-03-16T05:07:28.108Z,9.90
2019-03-16T05:09:56.631Z,9.90
2019-03-16T05:12:25.170Z,9.90
2019-03-16T05:14:53.691Z,9.90
2019-03-16T05:17:22.242Z,9.90
2019-03-16T05:19:50.763Z,9.90
2019-03-16T05:22:19.258Z,9.90
2019-03-16T05:24:47.759Z,9.90
2019-03-16T05:27:16.278Z,9.90
2019-03-16T05:29:44.752Z,9.90
2019-03-16T05:32:13.275Z,10.00
2019-03-16T05:34:55.653Z,9.90
2019-03-16T05:37:11.989Z,9.90
2019-03-16T05:39:40.535Z,9.90
2019-03-16T05:42:09.059Z,9.90
2019-03-16T05:44:37.522Z,9.90
2019-03-16T05:47:06.054Z,9.90
2019-03-16T05:49:34.602Z,9.90
2019-03-16T05:52:03.050Z,9.90
2019-03-16T05:54:31.523Z,9.90
2019-03-16T05:57:00.043Z,9.90
2019-03-16T05:59:28.526Z,9.90
2019-03-16T06:01:57.055Z,9.90
2019-03-16T06:04:25.507Z,9.90
2019-03-16T06:06:54.054Z,9.90
2019-03-16T06:09:22.570Z,9.90
2019-03-16T06:11:51.051Z,9.90
2019-03-16T06:14:19.578Z,9.90
2019-03-16T06:16:48.168Z,9.90
2019-03-16T06:19:16.711Z,9.90
2019-03-16T06:21:45.157Z,9.90
2019-03-16T06:24:13.624Z,9.90
2019-03-16T06:26:42.147Z,9.90
2019-03-16T06:29:10.671Z,9.90
2019-03-16T06:31:39.143Z,9.90
2019-03-16T06:34:07.673Z,9.90
2019-03-16T06:36:36.192Z,9.90
2019-03-16T06:39:06.846Z,9.90
2019-03-16T06:41:35.375Z,10.00
2019-03-16T06:44:03.912Z,10.00
2019-03-16T06:46:32.435Z,10.00
2019-03-16T06:49:00.984Z,10.00
2019-03-16T06:51:29.502Z,10.00
2019-03-16T06:53:57.979Z,10.00
2019-03-16T06:56:26.511Z,10.10
2019-03-16T06:58:58.238Z,10.00
2019-03-16T07:01:25.236Z,10.10
2019-03-16T07:03:53.766Z,10.10
2019-03-16T07:06:22.243Z,10.10
2019-03-16T07:08:50.797Z,10.10
2019-03-16T07:11:19.319Z,10.10
2019-03-16T07:13:47.847Z,10.10
2019-03-16T07:16:16.390Z,10.10
2019-03-16T07:18:58.033Z,10.20
2019-03-16T07:21:15.039Z,10.20
2019-03-16T07:23:43.559Z,10.20
2019-03-16T07:26:15.031Z,10.30
2019-03-16T07:28:42.221Z,10.30
2019-03-16T07:31:10.765Z,10.40
2019-03-16T07:33:39.302Z,10.40
2019-03-16T07:36:07.822Z,10.50
2019-03-16T07:38:36.298Z,10.50
2019-03-16T07:41:04.828Z,10.60
2019-03-16T07:43:33.478Z,10.60
2019-03-16T07:46:02.069Z,10.60
2019-03-16T07:48:30.546Z,10.70
2019-03-16T07:50:59.078Z,10.80
2019-03-16T07:53:29.192Z,10.90
2019-03-16T07:55:57.712Z,10.90
2019-03-16T07:58:26.235Z,10.90
2019-03-16T08:00:54.704Z,11.00
2019-03-16T08:03:23.230Z,11.10
2019-03-16T08:05:51.779Z,11.10
2019-03-16T08:08:20.307Z,11.20
2019-03-16T08:10:48.865Z,11.20
2019-03-16T08:13:17.467Z,11.20
2019-03-16T08:15:45.994Z,11.20
2019-03-16T08:18:14.537Z,11.20
2019-03-16T08:20:43.001Z,11.20
2019-03-16T08:23:11.550Z,11.30
2019-03-16T08:25:40.021Z,11.40
2019-03-16T08:28:08.552Z,11.50
2019-03-16T08:30:37.018Z,11.70
2019-03-16T08:33:05.476Z,11.90
2019-03-16T08:35:34.014Z,12.30
2019-03-16T08:38:02.554Z,12.80
2019-03-16T08:40:31.018Z,13.00
2019-03-16T08:42:59.545Z,13.20
2019-03-16T08:45:28.071Z,13.30
2019-03-16T08:47:56.616Z,13.40
2019-03-16T08:50:25.131Z,13.40
2019-03-16T08:52:53.984Z,13.30
2019-03-16T08:55:22.627Z,13.20
2019-03-16T08:57:51.150Z,13.30
2019-03-16T09:00:19.694Z,13.30
2019-03-16T09:02:48.214Z,13.20
2019-03-16T09:05:16.689Z,13.20
2019-03-16T09:07:45.211Z,13.20
2019-03-16T09:10:13.871Z,13.30
2019-03-16T09:12:54.479Z,13.30
2019-03-16T09:15:16.402Z,13.40
2019-03-16T09:17:44.948Z,13.30
2019-03-16T09:20:13.622Z,13.30
2019-03-16T09:22:42.143Z,13.30
2019-03-16T09:25:11.255Z,13.30
2019-03-16T09:27:39.914Z,13.40
2019-03-16T09:30:13.806Z,13.30
2019-03-16T09:32:42.435Z,13.30
2019-03-16T09:35:15.524Z,13.50
2019-03-16T09:37:44.325Z,13.60
2019-03-16T09:40:13.087Z,13.80
2019-03-16T09:42:42.098Z,13.80
2019-03-16T09:45:13.847Z,14.00
2019-03-16T09:47:42.368Z,14.20
2019-03-16T09:50:12.052Z,14.40
2019-03-16T09:52:40.725Z,14.60
2019-03-16T09:55:10.904Z,14.80
2019-03-16T09:57:39.437Z,14.90
2019-03-16T10:00:15.725Z,15.10
2019-03-16T10:02:44.241Z,15.00
2019-03-16T10:05:12.902Z,14.90
2019-03-16T10:07:41.515Z,15.00
2019-03-16T10:10:13.877Z,15.10
2019-03-16T10:12:42.494Z,15.40
2019-03-16T10:15:13.554Z,15.60
2019-03-16T10:17:42.087Z,15.60
2019-03-16T10:20:14.131Z,15.50
2019-03-16T10:22:42.824Z,15.60
2019-03-16T10:25:11.416Z,15.60
2019-03-16T10:27:40.075Z,15.70
2019-03-16T10:30:13.040Z,15.90
2019-03-16T10:32:41.635Z,16.00
2019-03-16T10:35:10.255Z,16.10
2019-03-16T10:37:38.836Z,16.20
2019-03-16T10:40:12.248Z,16.40
2019-03-16T10:42:40.766Z,16.50
2019-03-16T10:45:11.440Z,16.70
2019-03-16T10:47:40.038Z,16.70
2019-03-16T10:50:13.809Z,16.80
2019-03-16T10:52:42.436Z,16.90
2019-03-16T10:55:11.092Z,16.90
2019-03-16T10:57:39.610Z,17.10
2019-03-16T11:00:11.071Z,17.30
2019-03-16T11:02:39.657Z,17.30
2019-03-16T11:05:08.274Z,17.30
2019-03-16T11:07:36.806Z,17.20
2019-03-16T11:10:10.580Z,17.20
2019-03-16T11:12:39.335Z,17.30
2019-03-16T11:15:10.194Z,17.20
2019-03-16T11:17:39.146Z,17.10
2019-03-16T11:20:12.411Z,17.10
2019-03-16T11:22:40.949Z,17.20
2019-03-16T11:25:09.552Z,17.30
2019-03-16T11:27:38.084Z,17.50
2019-03-16T11:30:14.981Z,17.60
2019-03-16T11:32:43.649Z,17.70
2019-03-16T11:35:12.250Z,17.70
2019-03-16T11:37:40.696Z,17.80
2019-03-16T11:40:12.322Z,17.90
2019-03-16T11:42:40.844Z,17.60
2019-03-16T11:45:11.133Z,17.50
2019-03-16T11:47:39.655Z,17.60
2019-03-16T11:50:10.143Z,17.80
2019-03-16T11:52:38.771Z,17.90
2019-03-16T11:55:08.826Z,17.80
2019-03-16T11:57:37.363Z,17.70
2019-03-16T12:00:14.173Z,17.80
2019-03-16T12:02:42.782Z,17.90
2019-03-16T12:05:11.980Z,18.10
2019-03-16T12:07:40.671Z,18.30
2019-03-16T12:10:13.478Z,18.40
2019-03-16T12:12:41.957Z,18.50
2019-03-16T12:15:11.622Z,18.70
2019-03-16T12:17:40.141Z,18.90
2019-03-16T12:20:13.420Z,19.00
2019-03-16T12:22:42.006Z,18.90
2019-03-16T12:25:10.623Z,18.80
2019-03-16T12:27:39.150Z,18.50
2019-03-16T12:30:13.178Z,18.30
2019-03-16T12:32:41.799Z,18.30
2019-03-16T12:35:10.387Z,18.30
2019-03-16T12:37:38.998Z,18.20
2019-03-16T12:40:14.171Z,18.10
2019-03-16T12:42:42.698Z,17.90
2019-03-16T12:45:14.177Z,17.70
2019-03-16T12:47:42.736Z,17.60
2019-03-16T12:50:11.452Z,17.60
2019-03-16T12:52:40.014Z,17.50
2019-03-16T12:55:10.282Z,17.50
2019-03-16T12:57:38.968Z,17.50
2019-03-16T13:00:17.524Z,17.50
2019-03-16T13:02:46.130Z,17.50
2019-03-16T13:05:16.546Z,17.40
2019-03-16T13:07:45.096Z,17.40
2019-03-16T13:10:17.657Z,17.30
2019-03-16T13:12:46.189Z,17.20
2019-03-16T13:15:14.715Z,17.20
2019-03-16T13:17:43.230Z,17.10
2019-03-16T13:20:15.462Z,17.20
2019-03-16T13:22:44.063Z,17.20
2019-03-16T13:25:12.613Z,17.20
2019-03-16T13:27:41.649Z,17.20
2019-03-16T13:30:17.527Z,17.20
2019-03-16T13:32:46.042Z,17.20
2019-03-16T13:35:14.683Z,17.20
2019-03-16T13:37:43.203Z,17.30
2019-03-16T13:40:14.236Z,17.30
2019-03-16T13:42:42.853Z,17.40
2019-03-16T13:45:11.526Z,17.50
2019-03-16T13:47:40.066Z,17.60
2019-03-16T13:50:14.058Z,17.60
2019-03-16T13:52:42.983Z,17.60
2019-03-16T13:55:11.642Z,17.60
2019-03-16T13:57:40.364Z,17.80
2019-03-16T14:00:15.528Z,17.90
2019-03-16T14:02:44.062Z,18.10
2019-03-16T14:05:12.675Z,18.20
2019-03-16T14:07:41.578Z,18.30
2019-03-16T14:10:13.571Z,18.40
2019-03-16T14:12:42.099Z,18.40
2019-03-16T14:15:10.801Z,18.40
2019-03-16T14:17:39.578Z,18.30
2019-03-16T14:20:11.223Z,18.40
2019-03-16T14:22:39.813Z,18.60
2019-03-16T14:25:09.595Z,18.80
2019-03-16T14:27:38.128Z,19.00
2019-03-16T14:30:29.050Z,19.10
2019-03-16T14:32:45.172Z,19.10
2019-03-16T14:35:14.041Z,19.20
2019-03-16T14:37:42.646Z,19.20
2019-03-16T14:40:12.987Z,19.20
2019-03-16T14:42:41.638Z,19.20
2019-03-16T14:45:11.907Z,19.20
2019-03-16T14:47:40.430Z,19.10
2019-03-16T14:50:16.228Z,19.00
2019-03-16T14:52:44.561Z,18.90
2019-03-16T14:55:13.110Z,18.90
2019-03-16T14:57:41.634Z,18.90
2019-03-16T15:00:17.275Z,18.90
2019-03-16T15:02:46.647Z,18.90
2019-03-16T15:05:16.408Z,18.90
2019-03-16T15:07:45.153Z,18.80
2019-03-16T15:10:17.503Z,18.90
2019-03-16T15:12:45.975Z,18.80
2019-03-16T15:15:18.583Z,18.80
2019-03-16T15:17:47.248Z,18.80
2019-03-16T15:20:15.866Z,18.80
2019-03-16T15:22:44.461Z,18.80
2019-03-16T15:25:13.849Z,18.80
2019-03-16T15:27:42.363Z,18.80
2019-03-16T15:30:13.343Z,18.70
2019-03-16T15:32:42.022Z,18.70
2019-03-16T15:35:10.696Z,18.70
2019-03-16T15:37:39.475Z,18.70
2019-03-16T15:40:13.221Z,18.70
2019-03-16T15:42:41.744Z,18.70
2019-03-16T15:45:24.830Z,18.70
2019-03-16T15:47:53.505Z,18.60
2019-03-16T15:50:22.180Z,18.60
2019-03-16T15:52:50.734Z,18.50
2019-03-16T15:55:19.372Z,18.50
2019-03-16T15:57:47.924Z,18.40
2019-03-16T16:00:17.761Z,18.40
2019-03-16T16:02:46.554Z,18.30
2019-03-16T16:05:15.215Z,18.30
2019-03-16T16:07:43.895Z,18.30
2019-03-16T16:10:16.835Z,18.30
2019-03-16T16:12:45.499Z,18.20
2019-03-16T16:15:14.776Z,18.20
2019-03-16T16:17:43.379Z,18.20
2019-03-16T16:20:16.902Z,18.20
2019-03-16T16:22:45.429Z,18.10
2019-03-16T16:25:14.780Z,18.00
2019-03-16T16:27:43.478Z,17.90
2019-03-16T16:30:14.314Z,17.80
2019-03-16T16:32:42.926Z,17.80
2019-03-16T16:35:13.223Z,17.70
2019-03-16T16:37:41.767Z,17.60
2019-03-16T16:40:12.237Z,17.50
2019-03-16T16:42:40.782Z,17.30
2019-03-16T16:45:11.448Z,17.20
2019-03-16T16:47:40.043Z,17.20
2019-03-16T16:50:14.388Z,17.10
2019-03-16T16:52:42.934Z,17.10
2019-03-16T16:55:11.471Z,17.00
2019-03-16T16:57:39.933Z,16.90
2019-03-16T17:00:13.848Z,16.70
2019-03-16T17:02:42.543Z,16.70
2019-03-16T17:05:11.200Z,16.60
2019-03-16T17:07:39.814Z,16.50
2019-03-16T17:10:14.039Z,16.50
2019-03-16T17:12:42.968Z,16.40
2019-03-16T17:15:16.464Z,16.30
2019-03-16T17:17:44.917Z,16.20
2019-03-16T17:20:14.498Z,16.10
2019-03-16T17:22:43.197Z,15.80
2019-03-16T17:25:15.827Z,15.70
2019-03-16T17:27:44.452Z,15.60
2019-03-16T17:30:20.691Z,15.50
2019-03-16T17:32:49.143Z,15.40
2019-03-16T17:35:17.595Z,15.20
2019-03-16T17:37:46.222Z,14.90
2019-03-16T17:40:15.791Z,14.80
2019-03-16T17:42:44.415Z,14.70
2019-03-16T17:45:14.280Z,14.60
2019-03-16T17:47:42.881Z,14.40
2019-03-16T17:50:12.855Z,14.30
2019-03-16T17:52:41.391Z,14.20
2019-03-16T17:55:11.280Z,14.10
2019-03-16T17:57:39.803Z,14.10
2019-03-16T18:00:18.597Z,14.00
2019-03-16T18:02:51.809Z,14.00
2019-03-16T18:05:17.486Z,13.90
2019-03-16T18:07:46.058Z,13.70
2019-03-16T18:10:15.230Z,13.70
2019-03-16T18:12:43.778Z,13.60
2019-03-16T18:15:13.768Z,13.30
2019-03-16T18:17:42.366Z,13.20
2019-03-16T18:20:17.477Z,13.10
2019-03-16T18:22:46.193Z,13.00
2019-03-16T18:25:15.065Z,12.90
2019-03-16T18:27:43.658Z,12.60
2019-03-16T18:30:17.416Z,12.60
2019-03-16T18:32:46.066Z,12.30
2019-03-16T18:35:14.683Z,12.20
2019-03-16T18:37:43.209Z,11.90
2019-03-16T18:40:15.842Z,11.80
2019-03-16T18:42:44.526Z,11.60
2019-03-16T18:45:32.775Z,11.60
2019-03-16T18:48:01.352Z,11.50
2019-03-16T18:50:29.899Z,11.50
2019-03-16T18:52:58.446Z,11.40
2019-03-16T18:55:26.977Z,11.30
2019-03-16T18:57:55.519Z,11.40
2019-03-16T19:00:24.038Z,11.50
2019-03-16T19:02:52.593Z,11.50
2019-03-16T19:05:21.182Z,11.40
2019-03-16T19:07:52.423Z,11.40
2019-03-16T19:10:20.977Z,11.20
2019-03-16T19:12:49.505Z,11.10
2019-03-16T19:15:18.818Z,11.10
2019-03-16T19:17:58.200Z,11.00
2019-03-16T19:20:18.143Z,11.00
2019-03-16T19:22:46.834Z,11.00
2019-03-16T19:25:17.443Z,11.00
2019-03-16T19:27:46.046Z,10.80
2019-03-16T19:30:15.633Z,10.90
2019-03-16T19:32:44.799Z,11.00
2019-03-16T19:35:13.579Z,10.90
2019-03-16T19:37:42.255Z,10.80
2019-03-16T19:40:15.215Z,10.80
2019-03-16T19:42:46.549Z,10.70
2019-03-16T19:45:14.157Z,10.50
2019-03-16T19:47:42.749Z,10.40
2019-03-16T19:50:15.601Z,10.40
2019-03-16T19:52:44.266Z,10.20
2019-03-16T19:55:13.957Z,10.10
2019-03-16T19:57:42.483Z,9.90
2019-03-16T20:00:13.740Z,9.80
2019-03-16T20:02:50.223Z,9.60
2019-03-16T20:05:13.465Z,9.60
2019-03-16T20:07:41.991Z,9.50
2019-03-16T20:10:18.559Z,9.50
2019-03-16T20:12:47.291Z,9.40
2019-03-16T20:15:16.470Z,8.90
2019-03-16T20:17:44.993Z,8.60
2019-03-16T20:20:14.983Z,8.40
2019-03-16T20:22:43.576Z,8.10
2019-03-16T20:25:12.566Z,8.10
2019-03-16T20:27:41.218Z,7.90
2019-03-16T20:30:14.180Z,8.00
2019-03-16T20:32:42.838Z,8.00
2019-03-16T20:35:11.669Z,7.80
2019-03-16T20:37:40.251Z,7.70
2019-03-16T20:40:11.331Z,7.60
2019-03-16T20:42:39.945Z,7.60
2019-03-16T20:45:09.978Z,7.50
2019-03-16T20:47:38.614Z,7.50
2019-03-16T20:50:12.837Z,7.50
2019-03-16T20:52:41.367Z,7.50
2019-03-16T20:55:10.243Z,7.50
2019-03-16T20:57:38.796Z,7.40
2019-03-16T21:00:13.366Z,7.40
2019-03-16T21:02:41.914Z,7.20
2019-03-16T21:05:11.022Z,7.00
2019-03-16T21:07:39.619Z,6.80
2019-03-16T21:10:10.286Z,6.50
2019-03-16T21:12:38.834Z,6.40
2019-03-16T21:15:14.730Z,6.30
2019-03-16T21:17:43.348Z,6.10
2019-03-16T21:20:14.586Z,5.90
2019-03-16T21:22:43.266Z,5.70
2019-03-16T21:25:13.731Z,5.70
2019-03-16T21:27:42.343Z,5.70
2019-03-16T21:30:16.531Z,5.50
2019-03-16T21:32:45.074Z,5.50
2019-03-16T21:35:13.684Z,5.40
2019-03-16T21:37:42.234Z,5.40
2019-03-16T21:40:12.699Z,5.60
2019-03-16T21:42:41.323Z,6.00
2019-03-16T21:45:11.285Z,6.50
2019-03-16T21:47:39.898Z,6.70
2019-03-16T21:50:15.942Z,6.80
2019-03-16T21:52:45.132Z,6.90
2019-03-16T21:55:14.773Z,6.80
2019-03-16T21:57:43.476Z,6.70
2019-03-16T22:00:14.088Z,6.60
2019-03-16T22:02:42.654Z,6.60
2019-03-16T22:05:11.319Z,6.50
2019-03-16T22:07:39.999Z,6.50
2019-03-16T22:10:13.556Z,6.60
2019-03-16T22:12:42.086Z,6.40
2019-03-16T22:15:14.375Z,6.20
2019-03-16T22:17:43.247Z,6.10
2019-03-16T22:20:14.002Z,6.10
2019-03-16T22:22:42.540Z,6.10
2019-03-16T22:25:11.724Z,6.10
2019-03-16T22:27:40.323Z,6.00
2019-03-16T22:30:18.043Z,6.00
2019-03-16T22:32:46.567Z,5.90
2019-03-16T22:35:15.193Z,5.70
2019-03-16T22:37:43.787Z,5.70
2019-03-16T22:40:13.557Z,5.60
2019-03-16T22:42:42.347Z,5.30
2019-03-16T22:45:14.514Z,5.10
2019-03-16T22:47:43.060Z,4.90
2019-03-16T22:50:14.099Z,4.80
2019-03-16T22:52:42.638Z,4.60
2019-03-16T22:55:11.237Z,4.40
2019-03-16T22:57:39.859Z,4.40
2019-03-16T23:00:11.405Z,4.40
2019-03-16T23:02:40.011Z,4.20
2019-03-16T23:05:10.376Z,4.00
2019-03-16T23:07:38.991Z,3.90
2019-03-16T23:10:11.679Z,3.90
2019-03-16T23:12:40.229Z,3.70
2019-03-16T23:15:10.305Z,3.60
2019-03-16T23:17:38.920Z,3.40
2019-03-16T23:20:09.157Z,3.30
2019-03-16T23:22:37.775Z,3.00
2019-03-16T23:25:08.506Z,2.90
2019-03-16T23:27:37.046Z,2.70
2019-03-16T23:30:08.802Z,2.80
2019-03-16T23:32:37.360Z,2.70
2019-03-16T23:35:07.622Z,2.60
2019-03-16T23:37:36.219Z,2.60
2019-03-16T23:40:12.173Z,2.60
2019-03-16T23:42:40.624Z,2.60
2019-03-16T23:45:11.678Z,2.50
2019-03-16T23:47:40.274Z,2.40
2019-03-16T23:50:10.759Z,2.30
2019-03-16T23:52:39.203Z,2.20
2019-03-16T23:55:08.787Z,2.10
2019-03-16T23:57:37.318Z,2.00
